Layton, Florida
Current Conditions -  °F | °C
As of 12:53 PM on Saturday 25 Oct 2014 (Local Time) from KMTH Reporting Station
Clear Clear  
Wind Chill: 80°   Ceiling: Unl
Heat Index: 83°   Visibility: 10mi
Dew Point: 68°   Wind: 12mph
Humidity: 67%   Direction: 20°NNE
Pressure: 29.91"   Gusts: NA
Location:  24.8241°N, 80.818°W
Report Text: KMTH 251653Z AUTO 02010KT 10SM CLR 27/20 A2991 RMK AO2 SLP129 T02670200 $
Loading
Personal Weather Stations






























Interactive Weather Map
Tropical Storm Tracking
New forecast layout! Learn more

10-Day Weather Forecast

Advertisements
Track Severe Weather on mobile